Time;durP1;ratioP1;P1;durP2;ratioP2;P2;SDS_P1;SDS_P2;PMS_P1;PMS_P2;Temp;Humidity;BMP_temperature;BMP_pressure;BME280_temperature;BME280_humidity;BME280_pressure;Samples;Min_cycle;Max_cycle;Signal;HPM_P1;HPM_P2
2022/01/31 00:01:04;;;;;;;53.00;31.45;;;8.20;83.30;;;;;;4955556;28;20051;-73
2022/01/31 00:03:30;;;;;;;43.75;31.33;;;8.20;83.60;;;;;;4955267;29;20110;-78
2022/01/31 00:05:57;;;;;;;45.08;30.95;;;8.10;83.10;;;;;;4955508;29;20098;-79
2022/01/31 00:08:24;;;;;;;47.45;32.20;;;8.10;82.70;;;;;;4955280;29;20060;-74
2022/01/31 00:10:51;;;;;;;46.00;30.77;;;8.00;83.10;;;;;;4955303;28;20493;-73
2022/01/31 00:13:21;;;;;;;45.92;31.23;;;8.00;82.80;;;;;;4955176;29;20433;-81
2022/01/31 00:15:53;;;;;;;45.97;31.90;;;8.00;82.60;;;;;;4955195;29;20051;-76
2022/01/31 00:18:23;;;;;;;41.67;30.88;;;8.00;82.80;;;;;;4955412;29;20027;-74
2022/01/31 00:20:48;;;;;;;42.03;29.63;;;7.90;82.90;;;;;;4955233;29;20063;-73
2022/01/31 00:23:15;;;;;;;45.58;30.92;;;7.90;82.80;;;;;;4953822;28;20541;-75
2022/01/31 00:25:41;;;;;;;48.92;32.08;;;7.90;82.80;;;;;;4955009;29;20487;-70
2022/01/31 00:28:07;;;;;;;43.80;31.48;;;7.90;83.00;;;;;;4955141;29;20027;-71
2022/01/31 00:30:32;;;;;;;43.83;31.80;;;7.90;82.90;;;;;;4953853;28;20054;-79
2022/01/31 00:32:59;;;;;;;42.78;31.08;;;7.90;83.20;;;;;;4954855;28;20161;-71
2022/01/31 00:35:28;;;;;;;45.88;33.13;;;7.80;83.00;;;;;;4954958;29;20031;-76
2022/01/31 00:37:54;;;;;;;47.88;31.33;;;7.80;82.90;;;;;;4954908;28;20100;-76
2022/01/31 00:40:20;;;;;;;49.13;31.83;;;7.70;83.80;;;;;;4954829;29;20023;-66
2022/01/31 00:42:46;;;;;;;46.42;32.65;;;7.80;83.80;;;;;;4937792;29;20035;-69
2022/01/31 00:45:19;;;;;;;44.28;30.25;;;7.80;83.90;;;;;;4954723;28;20139;-82
2022/01/31 00:47:49;;;;;;;43.80;30.92;;;7.80;84.20;;;;;;4955033;28;20099;-65
2022/01/31 00:50:17;;;;;;;42.45;29.23;;;7.80;84.10;;;;;;4954708;28;20024;-74
2022/01/31 00:52:44;;;;;;;43.75;30.85;;;7.80;84.50;;;;;;4954581;29;20503;-80
2022/01/31 00:55:12;;;;;;;44.38;30.13;;;7.80;84.60;;;;;;4953454;28;20024;-79
2022/01/31 00:57:40;;;;;;;46.67;30.50;;;7.70;84.60;;;;;;4937202;29;20031;-76
2022/01/31 01:00:07;;;;;;;40.97;28.90;;;7.70;84.90;;;;;;4953339;29;20053;-77
2022/01/31 01:02:33;;;;;;;45.53;29.50;;;7.70;84.80;;;;;;4954236;28;20053;-64
2022/01/31 01:04:59;;;;;;;41.80;29.73;;;7.60;85.00;;;;;;4954589;28;20024;-69
2022/01/31 01:07:25;;;;;;;42.60;29.10;;;7.40;84.80;;;;;;4939920;29;20059;-77
2022/01/31 01:09:50;;;;;;;44.13;29.05;;;7.40;85.10;;;;;;4958830;29;20027;-64
2022/01/31 01:12:18;;;;;;;40.50;28.27;;;7.50;85.50;;;;;;4958323;28;20039;-67
2022/01/31 01:14:45;;;;;;;40.33;27.90;;;7.50;86.00;;;;;;4958386;28;20114;-67
2022/01/31 01:17:11;;;;;;;40.00;27.42;;;7.50;85.20;;;;;;4958301;29;20038;-64
2022/01/31 01:19:37;;;;;;;46.40;27.33;;;7.50;85.20;;;;;;4958293;29;20027;-65
2022/01/31 01:22:05;;;;;;;39.22;26.27;;;7.50;84.90;;;;;;4958273;29;20042;-68
2022/01/31 01:24:33;;;;;;;40.63;27.48;;;7.50;84.80;;;;;;4957087;29;20027;-70
2022/01/31 01:26:59;;;;;;;35.85;25.40;;;7.50;84.10;;;;;;4958071;28;20107;-68
2022/01/31 01:29:24;;;;;;;39.42;26.58;;;7.50;85.00;;;;;;4957090;28;20043;-67
2022/01/31 01:31:51;;;;;;;37.22;25.80;;;7.50;85.10;;;;;;4958075;28;20035;-64
2022/01/31 01:34:17;;;;;;;40.90;25.80;;;7.50;85.20;;;;;;4957817;29;20384;-64
2022/01/31 01:36:45;;;;;;;34.63;25.67;;;7.40;85.10;;;;;;4958334;29;20444;-70
2022/01/31 01:39:11;;;;;;;37.35;25.95;;;7.40;85.00;;;;;;4957926;28;20461;-66
2022/01/31 01:41:40;;;;;;;34.80;26.30;;;7.40;85.30;;;;;;4958120;29;20499;-65
2022/01/31 01:44:06;;;;;;;35.85;25.15;;;7.40;84.80;;;;;;4957893;29;20478;-70
2022/01/31 01:46:31;;;;;;;35.30;26.45;;;7.40;84.90;;;;;;4957952;29;20035;-70
2022/01/31 01:48:57;;;;;;;40.47;25.88;;;7.40;85.00;;;;;;4958082;29;20099;-74
2022/01/31 01:51:23;;;;;;;38.25;25.70;;;7.40;85.10;;;;;;4958217;28;20023;-78
2022/01/31 01:53:49;;;;;;;36.65;26.30;;;7.40;84.90;;;;;;4957354;28;20373;-74
2022/01/31 01:56:15;;;;;;;41.35;26.40;;;7.40;85.00;;;;;;4957285;28;20388;-80
2022/01/31 01:58:43;;;;;;;39.03;27.00;;;7.40;85.10;;;;;;4957409;29;20019;-64
2022/01/31 02:01:12;;;;;;;39.95;26.67;;;7.40;85.70;;;;;;4957083;29;20558;-64
2022/01/31 02:03:40;;;;;;;37.42;25.08;;;7.40;85.50;;;;;;4958456;28;20376;-78
2022/01/31 02:06:07;;;;;;;39.75;25.67;;;7.40;84.60;;;;;;4957893;29;20035;-78
2022/01/31 02:08:41;;;;;;;37.38;26.60;;;7.40;85.70;;;;;;4957874;28;20099;-77
2022/01/31 02:11:11;;;;;;;39.10;26.25;;;7.30;86.60;;;;;;4958133;29;20028;-78
2022/01/31 02:13:37;;;;;;;35.42;24.90;;;7.30;84.60;;;;;;4957344;28;20106;-64
2022/01/31 02:16:07;;;;;;;35.28;23.95;;;7.20;85.70;;;;;;4957358;28;20066;-64
2022/01/31 02:18:33;;;;;;;36.97;24.55;;;7.30;86.30;;;;;;4954634;28;20134;-78
2022/01/31 02:21:00;;;;;;;34.90;24.77;;;7.30;85.70;;;;;;4957305;29;20046;-79
2022/01/31 02:23:27;;;;;;;35.42;24.65;;;7.30;85.90;;;;;;4957534;28;20023;-79
2022/01/31 02:26:04;;;;;;;34.95;23.88;;;7.30;85.50;;;;;;4957484;29;20114;-80
2022/01/31 02:28:32;;;;;;;32.25;23.63;;;7.30;84.70;;;;;;4957400;29;20040;-80
2022/01/31 02:30:59;;;;;;;37.45;24.60;;;7.30;86.00;;;;;;4957461;29;20027;-79
2022/01/31 02:33:25;;;;;;;32.58;24.02;;;7.30;86.20;;;;;;4957086;28;20035;-77
2022/01/31 02:35:56;;;;;;;37.67;24.77;;;7.30;85.60;;;;;;4940075;29;20350;-76
2022/01/31 02:38:23;;;;;;;36.80;25.33;;;7.30;85.60;;;;;;4940228;29;20057;-81
2022/01/31 02:40:50;;;;;;;40.58;26.08;;;7.20;85.50;;;;;;4956955;29;20425;-73
2022/01/31 02:43:20;;;;;;;32.50;23.27;;;7.10;85.50;;;;;;4956920;28;20031;-77
2022/01/31 02:45:47;;;;;;;34.95;23.92;;;7.10;86.30;;;;;;4956756;29;20086;-77
2022/01/31 02:48:16;;;;;;;34.75;23.77;;;7.10;85.40;;;;;;4957088;28;20027;-75
2022/01/31 02:50:42;;;;;;;40.97;24.70;;;7.10;86.00;;;;;;4957482;28;20107;-75
2022/01/31 02:53:42;;;;;;;35.80;23.83;;;7.10;86.00;;;;;;4957142;28;20110;-72
2022/01/31 02:56:01;;;;;;;37.70;23.77;;;7.10;85.40;;;;;;4953824;29;20023;-80
2022/01/31 02:58:29;;;;;;;33.38;23.33;;;7.00;85.50;;;;;;4956790;29;20028;-75
2022/01/31 03:00:57;;;;;;;32.92;23.27;;;6.90;86.00;;;;;;4956442;28;20460;-79
2022/01/31 03:03:23;;;;;;;33.05;23.63;;;7.00;86.30;;;;;;4956422;28;20023;-65
2022/01/31 03:05:48;;;;;;;33.70;23.38;;;7.00;86.40;;;;;;4956396;29;20036;-64
2022/01/31 03:08:14;;;;;;;31.13;22.73;;;7.00;86.00;;;;;;4956372;29;20062;-80
2022/01/31 03:10:40;;;;;;;31.73;23.15;;;7.00;86.00;;;;;;4956520;29;20477;-77
2022/01/31 03:13:06;;;;;;;31.88;22.95;;;7.00;85.80;;;;;;4939525;28;20054;-77
2022/01/31 03:15:33;;;;;;;30.83;22.02;;;7.00;85.90;;;;;;4956521;28;20027;-74
2022/01/31 03:17:59;;;;;;;34.60;23.23;;;7.00;85.60;;;;;;4956183;28;20496;-76
2022/01/31 03:20:25;;;;;;;32.97;21.45;;;7.00;85.80;;;;;;4956392;28;20081;-80
2022/01/31 03:22:51;;;;;;;32.65;22.23;;;6.90;85.90;;;;;;4939045;29;20496;-77
2022/01/31 03:25:18;;;;;;;31.40;20.98;;;6.90;86.20;;;;;;4956014;28;20034;-75
2022/01/31 03:27:45;;;;;;;29.90;21.35;;;7.00;86.00;;;;;;4955987;29;20063;-79
2022/01/31 03:30:15;;;;;;;35.38;22.88;;;7.00;85.80;;;;;;4955316;28;20055;-79
2022/01/31 03:32:41;;;;;;;28.90;21.35;;;7.00;85.90;;;;;;4955930;28;20488;-75
2022/01/31 03:35:08;;;;;;;33.65;22.60;;;7.00;86.40;;;;;;4955917;28;20030;-78
2022/01/31 03:37:35;;;;;;;33.15;22.48;;;6.90;85.50;;;;;;4956168;29;20073;-79
2022/01/31 03:40:01;;;;;;;30.98;21.75;;;6.90;85.90;;;;;;4955901;28;20023;-71
2022/01/31 03:42:27;;;;;;;33.88;22.73;;;6.90;85.70;;;;;;4955707;28;20502;-74
2022/01/31 03:44:53;;;;;;;36.85;22.83;;;6.90;85.40;;;;;;4955617;29;20023;-75
2022/01/31 03:47:23;;;;;;;35.25;22.80;;;6.80;85.50;;;;;;4955358;28;20067;-70
2022/01/31 03:49:50;;;;;;;33.13;22.25;;;6.80;85.70;;;;;;4955454;29;20027;-75
2022/01/31 03:52:16;;;;;;;31.45;21.77;;;6.70;85.60;;;;;;4955493;28;20062;-64
2022/01/31 03:54:42;;;;;;;27.38;20.80;;;6.70;86.10;;;;;;4955308;28;20086;-64
2022/01/31 03:57:09;;;;;;;27.80;21.38;;;6.70;85.90;;;;;;4955467;29;20434;-66
2022/01/31 03:59:34;;;;;;;32.47;22.52;;;6.70;86.70;;;;;;4955330;29;20050;-70
2022/01/31 04:02:02;;;;;;;27.42;21.42;;;6.70;85.70;;;;;;4955294;29;20106;-71
2022/01/31 04:04:28;;;;;;;33.47;21.52;;;6.70;86.30;;;;;;4955209;28;20035;-64
2022/01/31 04:06:54;;;;;;;38.13;22.48;;;6.70;85.80;;;;;;4955376;28;20521;-66
2022/01/31 04:09:19;;;;;;;31.55;21.80;;;6.70;85.90;;;;;;4955259;28;20023;-65
2022/01/31 04:11:45;;;;;;;27.58;20.48;;;6.70;85.70;;;;;;4955152;29;20023;-65
2022/01/31 04:14:13;;;;;;;30.25;21.05;;;6.70;85.30;;;;;;4953797;28;20102;-65
2022/01/31 04:16:39;;;;;;;30.70;20.90;;;6.80;85.00;;;;;;4954982;29;20027;-64
2022/01/31 04:19:05;;;;;;;30.70;21.83;;;6.70;85.70;;;;;;4955253;29;20385;-64
2022/01/31 04:21:32;;;;;;;27.98;19.67;;;6.80;85.50;;;;;;4954199;29;20041;-64
2022/01/31 04:23:58;;;;;;;30.92;21.00;;;6.70;85.40;;;;;;4937681;28;20484;-66
2022/01/31 04:26:31;;;;;;;30.20;20.45;;;6.80;86.00;;;;;;4954913;28;20035;-68
2022/01/31 04:29:05;;;;;;;31.50;19.95;;;6.80;85.30;;;;;;4954926;29;20023;-66
2022/01/31 04:31:39;;;;;;;30.88;20.52;;;7.00;85.50;;;;;;4955123;29;20038;-63
2022/01/31 04:34:05;;;;;;;29.92;19.95;;;7.00;84.90;;;;;;4954795;28;20421;-66
2022/01/31 04:36:31;;;;;;;29.95;20.05;;;7.10;84.40;;;;;;4954890;28;20115;-65
2022/01/31 04:38:57;;;;;;;31.00;20.50;;;7.20;84.50;;;;;;4954723;28;20465;-64
2022/01/31 04:41:23;;;;;;;28.35;19.27;;;7.20;84.20;;;;;;4954858;28;20098;-64
2022/01/31 04:43:50;;;;;;;26.83;19.33;;;7.20;84.50;;;;;;4954611;28;20121;-64
2022/01/31 04:46:15;;;;;;;26.42;19.02;;;7.20;84.70;;;;;;4954744;28;20035;-73
2022/01/31 04:48:43;;;;;;;30.35;19.73;;;7.20;84.50;;;;;;4954805;29;20392;-68
2022/01/31 04:51:10;;;;;;;28.02;20.48;;;7.30;84.80;;;;;;4954631;28;20358;-65
2022/01/31 04:53:37;;;;;;;30.27;19.48;;;7.30;84.80;;;;;;4954738;28;20035;-68
2022/01/31 04:56:03;;;;;;;26.40;18.75;;;7.30;84.50;;;;;;4954665;29;20473;-70
2022/01/31 04:58:31;;;;;;;29.90;19.48;;;7.30;84.60;;;;;;4954732;29;20050;-71
2022/01/31 05:00:57;;;;;;;30.95;19.60;;;7.20;84.70;;;;;;4954525;28;20122;-71
2022/01/31 05:03:22;;;;;;;28.27;18.52;;;7.20;84.50;;;;;;4954463;28;20477;-72
2022/01/31 05:05:48;;;;;;;26.90;19.00;;;7.20;84.70;;;;;;4954527;29;20110;-72
2022/01/31 05:08:15;;;;;;;33.05;19.38;;;7.20;84.40;;;;;;4954656;29;20392;-75
2022/01/31 05:10:46;;;;;;;29.40;19.13;;;7.20;84.60;;;;;;4954719;29;20042;-70
2022/01/31 05:13:13;;;;;;;25.13;18.65;;;7.20;84.20;;;;;;4954413;28;20349;-72
2022/01/31 05:15:39;;;;;;;27.02;18.02;;;7.30;84.80;;;;;;4954358;29;20083;-73
2022/01/31 05:18:05;;;;;;;25.00;18.35;;;7.30;84.50;;;;;;4954590;29;20035;-69
2022/01/31 05:20:31;;;;;;;29.45;18.75;;;7.20;85.00;;;;;;4954480;28;20365;-66
2022/01/31 05:22:57;;;;;;;24.27;17.65;;;7.30;84.50;;;;;;4954634;28;20031;-74
2022/01/31 05:25:24;;;;;;;27.58;17.85;;;7.10;84.70;;;;;;4954380;29;20362;-76
2022/01/31 05:27:50;;;;;;;25.92;17.08;;;7.10;84.20;;;;;;4954404;29;20035;-76
2022/01/31 05:30:16;;;;;;;26.83;17.58;;;7.10;84.90;;;;;;4954556;29;20034;-75
2022/01/31 05:32:44;;;;;;;27.63;17.70;;;7.20;84.80;;;;;;4954244;28;20035;-70
2022/01/31 05:35:10;;;;;;;26.58;17.63;;;7.20;84.80;;;;;;4954260;29;20028;-73
2022/01/31 05:37:35;;;;;;;28.98;18.90;;;7.20;84.50;;;;;;4954421;29;20024;-69
2022/01/31 05:40:06;;;;;;;29.48;18.85;;;7.10;84.50;;;;;;4954447;28;20054;-71
2022/01/31 05:42:33;;;;;;;28.98;19.05;;;7.10;84.20;;;;;;4954221;28;20027;-75
2022/01/31 05:44:59;;;;;;;27.60;18.63;;;7.10;84.40;;;;;;4954346;29;20074;-70
2022/01/31 05:47:25;;;;;;;27.92;19.15;;;7.20;84.80;;;;;;4936670;29;20051;-68
2022/01/31 05:49:51;;;;;;;26.92;18.58;;;7.20;84.30;;;;;;4954327;28;20118;-74
2022/01/31 05:52:18;;;;;;;25.60;19.00;;;7.20;84.60;;;;;;4954948;28;20593;-74
2022/01/31 05:54:45;;;;;;;30.48;19.85;;;7.30;84.50;;;;;;4957809;28;20031;-74
2022/01/31 05:57:11;;;;;;;28.15;18.50;;;7.30;83.80;;;;;;4958048;28;20023;-76
2022/01/31 05:59:40;;;;;;;28.65;19.45;;;7.20;84.40;;;;;;4956868;29;20397;-65
2022/01/31 06:02:06;;;;;;;27.73;19.33;;;7.20;84.50;;;;;;4957890;29;20046;-72
2022/01/31 06:04:32;;;;;;;26.08;18.60;;;7.20;84.60;;;;;;4940274;29;20027;-72
2022/01/31 06:07:00;;;;;;;27.63;19.10;;;7.30;84.10;;;;;;4940374;29;20061;-70
2022/01/31 06:09:27;;;;;;;30.70;20.17;;;7.30;83.80;;;;;;4957243;29;20034;-75
2022/01/31 06:11:54;;;;;;;25.27;18.83;;;7.40;84.70;;;;;;4957506;28;20023;-71
2022/01/31 06:14:20;;;;;;;27.90;19.58;;;7.40;84.30;;;;;;4957245;28;20035;-65
2022/01/31 06:16:46;;;;;;;31.33;19.63;;;7.40;84.20;;;;;;4957182;28;20035;-65
2022/01/31 06:19:12;;;;;;;30.13;18.55;;;7.50;84.10;;;;;;4957241;29;20023;-65
2022/01/31 06:21:39;;;;;;;29.25;19.25;;;7.40;83.80;;;;;;4957121;29;20374;-71
2022/01/31 06:24:09;;;;;;;27.30;18.17;;;7.40;83.80;;;;;;4956712;28;20023;-65
2022/01/31 06:26:36;;;;;;;32.97;19.25;;;7.50;84.30;;;;;;4956977;29;20039;-64
2022/01/31 06:29:03;;;;;;;29.77;17.55;;;7.60;84.70;;;;;;4957016;28;20031;-70
2022/01/31 06:31:30;;;;;;;26.85;17.30;;;7.60;83.40;;;;;;4956471;29;20497;-67
2022/01/31 06:33:56;;;;;;;28.50;18.85;;;7.60;84.20;;;;;;4957200;28;20388;-66
2022/01/31 06:36:23;;;;;;;30.73;17.98;;;7.60;84.00;;;;;;4957113;29;20023;-76
2022/01/31 06:38:49;;;;;;;27.08;18.30;;;7.60;83.90;;;;;;4956884;28;20500;-67
2022/01/31 06:41:17;;;;;;;27.02;17.95;;;7.60;84.20;;;;;;4952559;29;20027;-66
2022/01/31 06:43:43;;;;;;;26.65;18.05;;;7.60;84.20;;;;;;4952460;28;20031;-68
2022/01/31 06:46:10;;;;;;;27.17;18.17;;;7.70;84.10;;;;;;4954637;29;20024;-68
2022/01/31 06:48:36;;;;;;;34.00;20.00;;;7.80;84.10;;;;;;4956475;29;20019;-71
2022/01/31 06:51:02;;;;;;;76.35;22.38;;;7.80;83.60;;;;;;4956536;29;20495;-67
2022/01/31 06:53:29;;;;;;;51.28;19.27;;;7.80;83.70;;;;;;4955202;29;20095;-68
2022/01/31 06:55:56;;;;;;;30.30;19.60;;;7.80;84.10;;;;;;4956104;29;20066;-66
2022/01/31 06:58:22;;;;;;;36.95;19.42;;;7.80;84.20;;;;;;4956367;29;20086;-72
2022/01/31 07:00:48;;;;;;;30.98;19.35;;;7.80;84.20;;;;;;4956460;29;20039;-67
2022/01/31 07:03:16;;;;;;;32.30;18.40;;;7.90;84.20;;;;;;4935283;28;20038;-70
2022/01/31 07:05:45;;;;;;;25.40;17.90;;;7.80;82.80;;;;;;4941631;28;20074;-70
2022/01/31 07:08:12;;;;;;;33.38;20.17;;;7.80;83.90;;;;;;4946887;28;20050;-78
2022/01/31 07:10:39;;;;;;;30.10;18.45;;;7.80;84.10;;;;;;4939925;29;20051;-72
2022/01/31 07:13:22;;;;;;;27.83;18.55;;;7.90;84.70;;;;;;4936282;29;20494;-74
2022/01/31 07:15:48;;;;;;;30.00;18.52;;;7.90;84.40;;;;;;4941895;28;20050;-69
2022/01/31 07:18:14;;;;;;;31.05;20.00;;;8.00;84.50;;;;;;4940984;28;20028;-70
2022/01/31 07:20:42;;;;;;;30.08;19.35;;;8.00;84.20;;;;;;4940822;28;20469;-68
2022/01/31 07:23:17;;;;;;;34.75;19.85;;;8.10;84.70;;;;;;4952070;28;20055;-69
2022/01/31 07:25:43;;;;;;;27.40;17.25;;;8.10;83.50;;;;;;4940938;28;20061;-70
2022/01/31 07:28:11;;;;;;;31.77;19.80;;;8.10;84.70;;;;;;4939447;29;20524;-68
2022/01/31 07:30:39;;;;;;;34.47;19.80;;;8.10;84.50;;;;;;4938835;29;20055;-66
2022/01/31 07:33:10;;;;;;;32.17;19.40;;;8.00;84.70;;;;;;4940382;28;20043;-66
2022/01/31 07:35:36;;;;;;;27.75;19.15;;;8.00;82.90;;;;;;4940389;29;20349;-68
2022/01/31 07:38:02;;;;;;;32.80;19.38;;;8.00;84.50;;;;;;4941871;29;20031;-74
2022/01/31 07:40:29;;;;;;;32.10;20.15;;;8.00;84.70;;;;;;4938470;28;20039;-68
2022/01/31 07:42:55;;;;;;;30.30;19.95;;;8.00;85.10;;;;;;4940277;28;20054;-67
2022/01/31 07:45:21;;;;;;;31.38;19.35;;;8.00;84.20;;;;;;4939893;28;20043;-69
2022/01/31 07:47:47;;;;;;;28.60;18.98;;;8.10;84.70;;;;;;4940001;28;20046;-66
2022/01/31 07:50:13;;;;;;;30.63;18.27;;;8.10;84.50;;;;;;4940479;28;20042;-66
2022/01/31 07:52:40;;;;;;;26.50;17.75;;;8.20;84.20;;;;;;4943621;28;20027;-66
2022/01/31 07:55:07;;;;;;;32.88;18.45;;;8.30;84.50;;;;;;4939726;28;20037;-67
2022/01/31 07:57:34;;;;;;;34.85;19.65;;;8.30;83.70;;;;;;4940711;29;20461;-66
2022/01/31 08:00:05;;;;;;;33.10;18.73;;;8.40;83.90;;;;;;4940863;28;20082;-66
2022/01/31 08:02:30;;;;;;;31.55;18.55;;;8.50;84.10;;;;;;4941510;28;20024;-66
2022/01/31 08:04:56;;;;;;;27.05;19.23;;;8.60;83.40;;;;;;4942723;29;20039;-67
2022/01/31 08:07:23;;;;;;;30.00;19.02;;;8.70;83.70;;;;;;4943184;29;20499;-68
2022/01/31 08:09:49;;;;;;;33.50;18.38;;;8.70;83.40;;;;;;4943630;29;20019;-77
2022/01/31 08:12:14;;;;;;;35.67;19.67;;;8.80;83.50;;;;;;4943105;29;20042;-67
2022/01/31 08:14:40;;;;;;;36.72;20.55;;;8.80;83.50;;;;;;4942127;28;20023;-69
2022/01/31 08:17:06;;;;;;;30.13;18.60;;;8.90;83.50;;;;;;4942484;28;20685;-73
2022/01/31 08:19:33;;;;;;;29.23;20.08;;;9.00;83.00;;;;;;4944448;28;20055;-68
2022/01/31 08:21:59;;;;;;;35.33;20.83;;;9.00;82.90;;;;;;4945980;28;20019;-64
2022/01/31 08:24:25;;;;;;;32.80;20.23;;;9.00;83.10;;;;;;4941283;28;20106;-76
2022/01/31 08:26:53;;;;;;;35.63;20.70;;;9.10;82.50;;;;;;4942456;28;20130;-67
2022/01/31 08:29:22;;;;;;;36.55;21.33;;;9.20;81.50;;;;;;4944581;28;20047;-71
2022/01/31 08:31:52;;;;;;;33.00;20.80;;;9.20;82.50;;;;;;4941664;28;20175;-72
2022/01/31 08:37:04;;;;;;;37.33;21.50;;;9.40;82.30;;;;;;4943413;29;20062;-73
2022/01/31 08:39:30;;;;;;;29.08;20.23;;;9.50;81.60;;;;;;4947515;28;20027;-71
2022/01/31 08:41:56;;;;;;;39.78;21.08;;;9.50;81.40;;;;;;4945837;28;20061;-76
2022/01/31 08:44:23;;;;;;;31.60;21.83;;;9.60;81.10;;;;;;4946244;28;20391;-72
2022/01/31 08:46:49;;;;;;;37.53;20.38;;;9.50;81.30;;;;;;4944465;29;20046;-70
2022/01/31 08:49:18;;;;;;;32.45;21.95;;;9.50;81.10;;;;;;4948144;28;20067;-68
2022/01/31 08:51:46;;;;;;;36.35;21.20;;;9.40;81.20;;;;;;4949190;29;20039;-68
2022/01/31 08:54:14;;;;;;;37.40;21.70;;;9.40;81.50;;;;;;4946186;28;20056;-68
2022/01/31 08:56:45;;;;;;;32.15;20.52;;;9.50;80.80;;;;;;4946964;29;20502;-77
2022/01/31 08:59:16;;;;;;;35.85;19.90;;;9.50;80.80;;;;;;4946259;29;20035;-70
2022/01/31 09:01:43;;;;;;;34.22;20.98;;;9.50;81.30;;;;;;4945944;29;20051;-69
2022/01/31 09:04:12;;;;;;;50.90;21.08;;;9.50;81.10;;;;;;4947771;28;20539;-75
2022/01/31 09:06:38;;;;;;;59.13;23.08;;;9.60;81.50;;;;;;4947539;29;20047;-73
2022/01/31 09:09:08;;;;;;;43.90;21.45;;;9.70;81.40;;;;;;4936234;29;20552;-67
2022/01/31 09:11:36;;;;;;;36.80;20.02;;;9.80;80.90;;;;;;4945765;28;20093;-66
2022/01/31 09:14:03;;;;;;;33.72;21.20;;;9.80;80.80;;;;;;4946681;28;20046;-70
2022/01/31 09:16:29;;;;;;;32.13;20.88;;;9.80;80.60;;;;;;4948023;28;20036;-69
2022/01/31 09:18:54;;;;;;;41.70;21.55;;;9.90;80.40;;;;;;4942093;28;20408;-70
2022/01/31 09:21:20;;;;;;;41.60;20.83;;;10.00;79.30;;;;;;4942927;28;20027;-65
2022/01/31 09:23:51;;;;;;;45.80;21.80;;;10.00;79.10;;;;;;4942588;28;20019;-70
2022/01/31 09:26:21;;;;;;;30.88;19.85;;;10.10;78.80;;;;;;4945623;28;20039;-68
2022/01/31 09:28:57;;;;;;;40.33;21.02;;;10.00;78.80;;;;;;4946933;28;20039;-68
2022/01/31 09:31:24;;;;;;;39.95;20.35;;;10.10;79.00;;;;;;4945634;28;20035;-67
2022/01/31 09:33:50;;;;;;;35.08;20.35;;;10.10;78.50;;;;;;4953096;28;20035;-73
2022/01/31 09:36:17;;;;;;;38.90;20.88;;;10.20;78.90;;;;;;4950633;28;20468;-65
2022/01/31 09:38:43;;;;;;;38.28;21.55;;;10.20;78.70;;;;;;4946413;29;20065;-67
2022/01/31 09:41:16;;;;;;;40.33;21.65;;;10.20;78.20;;;;;;4953294;28;20070;-66
2022/01/31 09:44:02;;;;;;;43.13;20.98;;;10.20;78.30;;;;;;4952107;28;20042;-67
2022/01/31 09:46:47;;;;;;;41.45;21.75;;;10.30;78.10;;;;;;4945355;28;20047;-66
2022/01/31 09:49:14;;;;;;;43.67;22.00;;;10.20;77.90;;;;;;4945955;29;20086;-76
2022/01/31 09:51:40;;;;;;;40.30;21.73;;;10.20;78.20;;;;;;4949508;29;20054;-65
2022/01/31 09:54:06;;;;;;;43.40;22.23;;;10.30;78.30;;;;;;4950159;28;20479;-70
2022/01/31 09:56:38;;;;;;;39.90;21.67;;;10.30;78.50;;;;;;4949949;28;20046;-67
2022/01/31 09:59:06;;;;;;;39.88;22.02;;;10.30;78.80;;;;;;4947630;29;20035;-73
2022/01/31 10:01:41;;;;;;;41.92;22.50;;;10.40;78.80;;;;;;4936167;29;20074;-68
2022/01/31 10:04:30;;;;;;;42.72;22.95;;;10.40;78.70;;;;;;4947542;28;20071;-76
2022/01/31 10:06:59;;;;;;;48.33;23.17;;;10.50;78.50;;;;;;4950779;28;20126;-67
2022/01/31 10:09:43;;;;;;;45.92;22.20;;;10.60;78.70;;;;;;4951704;28;20171;-70
2022/01/31 10:12:18;;;;;;;;;;;10.60;78.30;;;;;;4949339;29;20106;-67
2022/01/31 10:17:44;;;;;;;47.08;23.48;;;10.70;78.70;;;;;;4953258;28;20091;-68
2022/01/31 10:20:19;;;;;;;37.80;22.85;;;10.80;78.40;;;;;;4945372;29;20414;-78
2022/01/31 10:22:47;;;;;;;41.80;21.45;;;10.80;78.60;;;;;;4947033;28;20028;-71
2022/01/31 10:25:18;;;;;;;41.03;22.77;;;10.80;79.40;;;;;;4945714;29;20047;-68
2022/01/31 10:27:49;;;;;;;50.75;24.77;;;10.90;79.20;;;;;;4947136;29;20437;-67
2022/01/31 10:30:18;;;;;;;53.08;22.67;;;10.80;79.40;;;;;;4945253;29;20130;-68
2022/01/31 10:32:47;;;;;;;50.10;23.38;;;10.90;79.60;;;;;;4934524;28;20054;-70
2022/01/31 10:35:18;;;;;;;44.80;22.83;;;10.90;79.60;;;;;;4944724;28;20055;-68
2022/01/31 10:37:45;;;;;;;41.60;22.10;;;10.80;79.80;;;;;;4949274;28;20054;-70
2022/01/31 10:50:42;;;;;;;41.33;22.92;;;11.10;79.80;;;;;;4944067;29;20077;-71
2022/01/31 10:51:58;;;;;;;38.28;22.48;;;11.30;79.20;;;;;;4945033;28;20070;-73
2022/01/31 10:57:02;;;;;;;41.85;23.25;;;11.50;79.00;;;;;;4943998;29;20039;-70
2022/01/31 10:59:37;;;;;;;34.25;20.98;;;11.60;79.00;;;;;;4945918;28;20070;-65
2022/01/31 11:02:07;;;;;;;38.47;22.30;;;11.70;79.10;;;;;;4944973;28;20039;-68
2022/01/31 11:04:35;;;;;;;34.50;19.23;;;11.80;79.50;;;;;;4945192;28;20039;-71
2022/01/31 11:07:08;;;;;;;35.65;20.63;;;11.80;79.90;;;;;;4945120;29;20109;-69
2022/01/31 11:09:37;;;;;;;33.13;18.05;;;11.90;80.20;;;;;;4949119;28;20028;-70
2022/01/31 11:12:07;;;;;;;33.95;19.50;;;12.00;80.90;;;;;;4946225;29;20034;-68
2022/01/31 11:14:38;;;;;;;36.03;17.52;;;12.00;80.80;;;;;;4955131;28;21364;-72
2022/01/31 11:17:13;;;;;;;30.60;16.98;;;12.10;81.20;;;;;;4946114;28;20335;-68
2022/01/31 11:19:44;;;;;;;37.05;19.98;;;12.20;81.50;;;;;;4937022;29;20059;-70
2022/01/31 11:22:13;;;;;;;28.95;15.65;;;12.20;81.20;;;;;;4944596;29;20119;-68
2022/01/31 11:24:46;;;;;;;38.45;17.50;;;12.20;82.20;;;;;;4936773;28;20086;-69
2022/01/31 11:27:22;;;;;;;26.33;14.70;;;12.20;82.60;;;;;;4945543;29;20109;-75
2022/01/31 11:29:57;;;;;;;29.27;13.55;;;12.20;82.80;;;;;;4947833;29;20031;-74
2022/01/31 11:32:25;;;;;;;28.73;13.52;;;12.20;83.60;;;;;;4951039;28;20035;-71
2022/01/31 11:34:53;;;;;;;20.60;9.73;;;12.20;83.30;;;;;;4938304;29;20027;-67
2022/01/31 11:37:27;;;;;;;21.55;8.45;;;12.20;84.70;;;;;;4943965;29;20503;-71
2022/01/31 11:40:06;;;;;;;;;;;12.20;84.10;;;;;;4944214;29;20698;-72
2022/01/31 11:42:34;;;;;;;17.55;7.60;;;12.20;85.50;;;;;;4943314;28;19925;-69
2022/01/31 11:45:34;;;;;;;13.55;6.82;;;12.20;85.40;;;;;;4944535;29;20034;-67
2022/01/31 11:48:18;;;;;;;16.30;6.57;;;12.20;84.60;;;;;;4901241;29;20047;-69
2022/01/31 11:50:48;;;;;;;13.52;6.10;;;12.20;86.30;;;;;;4944292;28;20120;-69
2022/01/31 11:53:28;;;;;;;17.38;7.00;;;12.20;86.10;;;;;;4946617;28;20114;-70
2022/01/31 11:55:55;;;;;;;13.85;6.25;;;12.20;85.50;;;;;;4944773;29;20111;-69
2022/01/31 11:58:22;;;;;;;13.88;5.70;;;12.30;85.60;;;;;;4942552;29;20035;-69
2022/01/31 12:00:54;;;;;;;20.17;6.50;;;12.30;86.30;;;;;;4945067;29;20059;-67
2022/01/31 12:03:20;;;;;;;15.45;6.00;;;12.30;86.30;;;;;;4943967;28;20055;-69
2022/01/31 12:05:47;;;;;;;16.67;5.75;;;12.40;86.70;;;;;;4944500;28;20145;-69
2022/01/31 12:08:21;;;;;;;15.63;6.30;;;12.40;87.20;;;;;;4946493;29;20095;-68
2022/01/31 12:11:16;;;;;;;18.58;6.38;;;12.40;86.20;;;;;;4942745;29;20628;-68
2022/01/31 12:14:00;;;;;;;18.98;10.50;;;12.50;87.40;;;;;;4941841;28;20043;-68
2022/01/31 12:19:46;;;;;;;17.95;9.05;;;12.60;86.50;;;;;;4945266;29;20047;-70
2022/01/31 12:22:48;;;;;;;14.43;7.10;;;12.70;86.70;;;;;;4931991;29;20045;-70
2022/01/31 12:25:27;;;;;;;16.83;7.95;;;12.70;86.80;;;;;;4942716;29;20053;-69
2022/01/31 12:27:54;;;;;;;13.02;6.68;;;12.80;86.60;;;;;;4942577;29;20047;-66
2022/01/31 12:30:36;;;;;;;21.92;7.55;;;12.80;87.40;;;;;;4944799;29;20035;-77
2022/01/31 12:33:03;;;;;;;15.93;7.20;;;12.90;87.30;;;;;;4944191;28;20935;-77
2022/01/31 12:35:37;;;;;;;18.92;7.32;;;12.90;87.30;;;;;;4942474;29;20047;-75
2022/01/31 12:38:06;;;;;;;16.27;6.53;;;12.90;87.30;;;;;;4942709;29;20035;-74
2022/01/31 12:40:40;;;;;;;17.25;6.90;;;12.80;87.80;;;;;;4946571;29;20043;-66
2022/01/31 12:46:09;;;;;;;13.93;5.85;;;12.80;87.50;;;;;;4942645;28;20047;-66
2022/01/31 12:48:36;;;;;;;15.07;6.18;;;12.80;88.30;;;;;;4942475;29;20562;-69
2022/01/31 12:51:06;;;;;;;16.75;6.57;;;12.80;88.60;;;;;;4943166;28;20023;-66
2022/01/31 12:56:09;;;;;;;10.35;5.10;;;12.70;88.20;;;;;;4947792;29;20035;-67
2022/01/31 12:58:38;;;;;;;15.27;4.68;;;12.70;88.30;;;;;;4949122;28;20028;-69
2022/01/31 13:01:15;;;;;;;13.95;5.30;;;12.70;89.20;;;;;;4950240;28;20051;-68
2022/01/31 13:03:46;;;;;;;14.80;5.95;;;12.70;89.40;;;;;;4946440;28;20193;-67
2022/01/31 13:06:32;;;;;;;15.48;5.28;;;12.70;89.00;;;;;;4947937;29;20035;-68
2022/01/31 13:09:11;;;;;;;13.20;5.07;;;12.70;89.80;;;;;;4952886;29;20086;-68